Time;durP1;ratioP1;P1;durP2;ratioP2;P2;SDS_P1;SDS_P2;PMS_P1;PMS_P2;Temp;Humidity;BMP_temperature;BMP_pressure;BME280_temperature;BME280_humidity;BME280_pressure;Samples;Min_cycle;Max_cycle;Signal;HPM_P1;HPM_P2
2024/01/07 00:00:48;;;;;;;2.37;2.00;;;1.40;99.90;;;;;;5024540;28;21116;-85
2024/01/07 00:03:16;;;;;;;3.07;2.10;;;1.30;99.90;;;;;;5027748;28;20499;-81
2024/01/07 00:05:44;;;;;;;1.30;1.20;;;1.30;99.90;;;;;;5032574;28;20548;-82
2024/01/07 00:08:11;;;;;;;1.63;1.40;;;1.30;99.90;;;;;;5013213;28;20526;-78
2024/01/07 00:10:38;;;;;;;2.10;1.60;;;1.30;99.90;;;;;;5018301;28;20451;-78
2024/01/07 00:13:05;;;;;;;2.10;1.67;;;1.30;99.90;;;;;;5020243;28;20513;-78
2024/01/07 00:15:32;;;;;;;2.50;1.90;;;1.30;99.90;;;;;;5010308;28;20466;-83
2024/01/07 00:17:59;;;;;;;1.90;1.60;;;1.30;99.90;;;;;;5027151;28;20847;-83
2024/01/07 00:20:26;;;;;;;2.07;1.53;;;1.30;99.90;;;;;;4999910;28;20499;-78
2024/01/07 00:22:56;;;;;;;2.70;1.50;;;1.30;99.90;;;;;;5001128;28;20562;-79
2024/01/07 00:25:23;;;;;;;4.03;2.80;;;1.30;99.90;;;;;;5029896;28;20447;-79
2024/01/07 00:27:51;;;;;;;2.40;2.17;;;1.30;99.90;;;;;;5017758;28;20457;-78
2024/01/07 00:30:20;;;;;;;2.07;1.87;;;1.30;99.90;;;;;;5014922;28;20461;-80
2024/01/07 00:32:47;;;;;;;1.93;1.83;;;1.30;99.90;;;;;;5007307;28;20520;-78
2024/01/07 00:35:14;;;;;;;2.90;2.03;;;1.40;99.90;;;;;;5013276;28;20854;-81
2024/01/07 00:37:41;;;;;;;4.30;1.87;;;1.30;99.90;;;;;;5003443;28;20931;-81
2024/01/07 00:40:11;;;;;;;1.70;1.33;;;1.40;99.90;;;;;;5010352;28;20534;-79
2024/01/07 00:42:38;;;;;;;2.50;2.30;;;1.40;99.90;;;;;;5003275;28;20993;-84
2024/01/07 00:45:06;;;;;;;2.37;2.17;;;1.40;99.90;;;;;;5003607;28;20562;-78
2024/01/07 00:47:32;;;;;;;2.33;1.80;;;1.40;99.90;;;;;;4999642;28;20479;-79
2024/01/07 00:49:59;;;;;;;2.53;2.33;;;1.40;99.90;;;;;;5004603;28;20523;-78
2024/01/07 00:52:26;;;;;;;1.87;1.77;;;1.40;99.90;;;;;;5000425;28;20560;-78
2024/01/07 00:54:53;;;;;;;2.17;1.73;;;1.40;99.90;;;;;;5012230;28;20510;-78
2024/01/07 00:57:22;;;;;;;2.17;1.80;;;1.50;99.90;;;;;;5010834;28;20494;-79
2024/01/07 00:59:50;;;;;;;4.57;2.00;;;1.50;99.90;;;;;;5013211;28;20461;-81
2024/01/07 01:02:17;;;;;;;2.60;2.40;;;1.50;99.90;;;;;;5011527;28;21109;-81
2024/01/07 01:04:44;;;;;;;3.43;2.50;;;1.40;99.90;;;;;;4992707;28;20493;-79
2024/01/07 01:07:11;;;;;;;2.63;2.43;;;1.50;99.90;;;;;;5009978;28;20458;-80
2024/01/07 01:09:38;;;;;;;1.90;1.77;;;1.50;99.90;;;;;;5014181;28;20505;-82
2024/01/07 01:12:05;;;;;;;3.93;2.17;;;1.40;99.90;;;;;;5006815;28;20539;-80
2024/01/07 01:14:34;;;;;;;1.97;1.87;;;1.40;99.90;;;;;;5008777;28;20953;-79
2024/01/07 01:17:01;;;;;;;3.30;2.87;;;1.40;99.90;;;;;;5042376;28;21049;-79
2024/01/07 01:19:28;;;;;;;2.00;1.80;;;1.50;99.90;;;;;;5016525;28;20459;-78
2024/01/07 01:21:55;;;;;;;2.27;1.93;;;1.50;99.90;;;;;;5006062;28;20564;-77
2024/01/07 01:24:21;;;;;;;3.47;2.33;;;1.50;99.90;;;;;;5008802;28;20528;-77
2024/01/07 01:26:48;;;;;;;2.03;1.87;;;1.50;99.90;;;;;;5008829;28;20523;-77
2024/01/07 01:29:15;;;;;;;4.03;3.03;;;1.50;99.90;;;;;;5005787;28;20469;-77
2024/01/07 01:31:44;;;;;;;2.50;2.40;;;1.50;99.90;;;;;;5005193;28;20504;-75
2024/01/07 01:34:10;;;;;;;2.43;2.23;;;1.50;99.90;;;;;;5012798;28;20622;-77
2024/01/07 01:36:37;;;;;;;3.10;2.90;;;1.50;99.90;;;;;;5011543;28;20845;-81
2024/01/07 01:39:04;;;;;;;3.00;2.80;;;1.50;99.90;;;;;;5001460;28;20548;-80
2024/01/07 01:41:31;;;;;;;3.67;2.87;;;1.50;99.90;;;;;;5014491;28;20482;-79
2024/01/07 01:43:59;;;;;;;4.13;3.20;;;1.50;99.90;;;;;;5005540;28;20451;-79
2024/01/07 01:46:26;;;;;;;3.30;3.00;;;1.50;99.90;;;;;;5015901;28;20481;-78
2024/01/07 01:48:55;;;;;;;4.07;2.87;;;1.40;99.90;;;;;;5006572;28;21015;-82
2024/01/07 01:51:22;;;;;;;3.70;3.43;;;1.50;99.90;;;;;;5008383;28;20503;-77
2024/01/07 01:53:51;;;;;;;3.63;2.97;;;1.40;99.90;;;;;;5014243;28;20603;-78
2024/01/07 01:56:20;;;;;;;3.00;2.67;;;1.40;99.90;;;;;;5003650;28;20555;-78
2024/01/07 01:58:47;;;;;;;2.83;2.57;;;1.40;99.90;;;;;;5015510;28;20475;-78
2024/01/07 02:01:14;;;;;;;3.93;3.60;;;1.40;99.90;;;;;;5018425;28;20455;-79
2024/01/07 02:03:41;;;;;;;3.67;3.37;;;1.50;99.90;;;;;;5003352;28;20499;-78
2024/01/07 02:06:10;;;;;;;4.17;3.50;;;1.40;99.90;;;;;;5010432;28;20461;-79
2024/01/07 02:08:37;;;;;;;5.10;3.30;;;1.40;99.90;;;;;;5012915;28;20451;-77
2024/01/07 02:11:18;;;;;;;4.10;2.70;;;1.40;99.90;;;;;;5010124;28;20498;-81
2024/01/07 02:13:46;;;;;;;3.33;2.73;;;1.40;99.90;;;;;;5017474;28;20481;-78
2024/01/07 02:16:13;;;;;;;4.47;3.60;;;1.40;99.90;;;;;;5007065;28;20473;-80
2024/01/07 02:18:42;;;;;;;3.43;3.13;;;1.40;99.90;;;;;;5048405;28;20506;-78
2024/01/07 02:21:11;;;;;;;4.10;3.60;;;1.40;99.90;;;;;;5006516;28;20474;-78
2024/01/07 02:23:38;;;;;;;3.70;3.00;;;1.40;99.90;;;;;;5011762;28;20453;-79
2024/01/07 02:26:07;;;;;;;3.70;3.37;;;1.40;99.90;;;;;;5007073;28;20471;-78
2024/01/07 02:28:34;;;;;;;5.70;3.77;;;1.40;99.90;;;;;;5011025;28;20517;-80
2024/01/07 02:31:01;;;;;;;2.90;2.60;;;1.40;99.90;;;;;;5012304;28;20459;-82
2024/01/07 02:33:29;;;;;;;3.70;3.40;;;1.40;99.90;;;;;;5004845;28;20622;-82
2024/01/07 02:35:56;;;;;;;3.37;2.97;;;1.40;99.90;;;;;;5006635;28;20477;-78
2024/01/07 02:38:23;;;;;;;3.07;2.33;;;1.40;99.90;;;;;;5009090;28;20508;-78
2024/01/07 02:40:50;;;;;;;3.23;3.03;;;1.30;99.90;;;;;;5002632;28;20470;-78
2024/01/07 02:43:18;;;;;;;2.60;2.40;;;1.30;99.90;;;;;;5011733;28;20504;-77
2024/01/07 02:45:45;;;;;;;3.90;3.30;;;1.30;99.90;;;;;;5016348;28;20450;-77
2024/01/07 02:48:12;;;;;;;3.70;3.07;;;1.30;99.90;;;;;;5039462;28;20953;-78
2024/01/07 02:50:39;;;;;;;4.40;4.00;;;1.30;99.90;;;;;;5004166;28;20439;-82
2024/01/07 02:53:07;;;;;;;3.23;2.93;;;1.30;99.90;;;;;;4999727;28;20458;-77
2024/01/07 02:55:34;;;;;;;3.47;3.17;;;1.30;99.90;;;;;;5015902;28;20574;-78
2024/01/07 02:58:01;;;;;;;4.10;3.07;;;1.30;99.90;;;;;;5006901;28;20956;-81
2024/01/07 03:00:29;;;;;;;4.40;4.00;;;1.30;99.90;;;;;;5029865;28;20443;-80
2024/01/07 03:02:56;;;;;;;3.90;3.27;;;1.30;99.90;;;;;;5032383;28;21193;-78
2024/01/07 03:05:23;;;;;;;3.83;3.00;;;1.30;99.90;;;;;;5005841;28;20563;-84
2024/01/07 03:07:53;;;;;;;4.33;3.47;;;1.30;99.90;;;;;;5013104;28;20992;-81
2024/01/07 03:10:20;;;;;;;5.60;3.57;;;1.30;99.90;;;;;;5003517;28;21066;-77
2024/01/07 03:12:47;;;;;;;5.57;3.30;;;1.30;99.90;;;;;;4997236;28;20546;-77
2024/01/07 03:15:14;;;;;;;3.50;3.20;;;1.30;99.90;;;;;;5017085;28;20490;-78
2024/01/07 03:17:43;;;;;;;5.07;4.30;;;1.30;99.90;;;;;;5023969;28;21211;-77
2024/01/07 03:20:11;;;;;;;3.83;3.43;;;1.30;99.90;;;;;;5020704;28;20443;-77
2024/01/07 03:22:38;;;;;;;3.77;3.30;;;1.30;99.90;;;;;;5004597;28;20466;-78
2024/01/07 03:25:06;;;;;;;3.30;3.00;;;1.30;99.90;;;;;;4996481;28;20508;-83
2024/01/07 03:27:33;;;;;;;4.57;3.47;;;1.30;99.90;;;;;;5011280;28;20467;-78
2024/01/07 03:30:00;;;;;;;3.13;2.90;;;1.30;99.90;;;;;;5006490;28;20511;-77
2024/01/07 03:32:27;;;;;;;5.17;4.67;;;1.30;99.90;;;;;;5016463;28;20449;-81
2024/01/07 03:34:55;;;;;;;3.30;3.03;;;1.30;99.90;;;;;;5010264;28;20560;-77
2024/01/07 03:37:22;;;;;;;6.87;4.40;;;1.30;99.90;;;;;;5006846;28;20479;-77
2024/01/07 03:39:49;;;;;;;3.60;3.30;;;1.30;99.90;;;;;;5024943;28;21040;-77
2024/01/07 03:42:16;;;;;;;4.83;4.30;;;1.30;99.90;;;;;;5013209;28;20442;-77
2024/01/07 03:44:43;;;;;;;4.23;3.83;;;1.30;99.90;;;;;;5008311;28;21091;-80
2024/01/07 03:47:10;;;;;;;6.70;3.77;;;1.20;99.90;;;;;;5002736;28;21058;-77
2024/01/07 03:49:38;;;;;;;3.50;2.47;;;1.20;99.90;;;;;;5008520;28;20454;-77
2024/01/07 03:52:07;;;;;;;3.97;3.30;;;1.10;99.90;;;;;;5012588;28;20449;-83
2024/01/07 03:54:34;;;;;;;4.47;3.20;;;1.10;99.90;;;;;;5006134;28;20574;-82
2024/01/07 03:57:01;;;;;;;5.17;3.40;;;1.10;99.90;;;;;;5016151;28;20446;-81
2024/01/07 03:59:28;;;;;;;5.20;4.20;;;1.10;99.90;;;;;;5009372;28;21174;-78
2024/01/07 04:01:57;;;;;;;4.70;3.67;;;1.10;99.90;;;;;;5013927;28;20492;-80
2024/01/07 04:04:25;;;;;;;3.73;3.40;;;1.10;99.90;;;;;;5008452;28;20519;-79
2024/01/07 04:06:51;;;;;;;8.30;4.20;;;1.20;99.90;;;;;;5007937;28;20446;-78
2024/01/07 04:09:20;;;;;;;3.47;2.70;;;1.10;99.90;;;;;;4996274;28;20507;-77
2024/01/07 04:11:47;;;;;;;4.10;3.70;;;1.10;99.90;;;;;;5006679;28;20455;-77
2024/01/07 04:14:16;;;;;;;5.43;4.13;;;1.20;99.90;;;;;;5004883;28;20497;-79
2024/01/07 04:16:43;;;;;;;4.43;4.10;;;1.20;99.90;;;;;;5011225;28;20538;-80
2024/01/07 04:19:10;;;;;;;3.97;3.30;;;1.20;99.90;;;;;;5015510;28;20494;-77
2024/01/07 04:21:36;;;;;;;3.50;3.20;;;1.20;99.90;;;;;;5000301;28;20464;-78
2024/01/07 04:24:04;;;;;;;5.63;4.00;;;1.20;99.90;;;;;;5004087;28;20474;-80
2024/01/07 04:26:32;;;;;;;4.20;3.70;;;1.20;99.90;;;;;;5003170;28;20463;-77
2024/01/07 04:28:59;;;;;;;4.43;4.03;;;1.20;99.90;;;;;;5005715;28;20890;-77
2024/01/07 04:31:26;;;;;;;5.00;3.83;;;1.20;99.90;;;;;;5009086;28;20539;-77
2024/01/07 04:33:53;;;;;;;4.07;3.20;;;1.20;99.90;;;;;;5008437;28;20858;-80
2024/01/07 04:36:20;;;;;;;4.33;3.93;;;1.10;99.90;;;;;;5011996;28;20589;-77
2024/01/07 04:38:47;;;;;;;15.90;5.50;;;1.10;99.90;;;;;;5003714;28;20531;-80
2024/01/07 04:41:14;;;;;;;4.00;3.60;;;1.20;99.90;;;;;;5002313;28;20488;-78
2024/01/07 04:43:43;;;;;;;4.80;4.37;;;1.20;99.90;;;;;;5003154;28;20508;-79
2024/01/07 04:46:12;;;;;;;4.53;3.60;;;1.20;99.90;;;;;;5006674;28;20551;-80
2024/01/07 04:48:39;;;;;;;4.60;3.90;;;1.10;99.90;;;;;;5004863;28;20451;-81
2024/01/07 04:51:06;;;;;;;4.73;4.00;;;1.10;99.90;;;;;;5014565;28;20480;-76
2024/01/07 04:53:33;;;;;;;5.97;5.10;;;1.20;99.90;;;;;;5003681;28;20466;-77
2024/01/07 04:56:00;;;;;;;5.10;4.60;;;1.20;99.90;;;;;;5009589;28;20561;-76
2024/01/07 04:58:27;;;;;;;4.73;3.53;;;1.20;99.90;;;;;;5008039;28;20451;-77
2024/01/07 05:00:55;;;;;;;4.43;3.60;;;1.20;99.90;;;;;;5007041;28;20539;-77
2024/01/07 05:03:22;;;;;;;4.30;3.90;;;1.20;99.90;;;;;;5006673;28;21182;-77
2024/01/07 05:05:49;;;;;;;4.67;4.00;;;1.10;99.90;;;;;;5000787;28;20542;-78
2024/01/07 05:08:16;;;;;;;5.00;4.50;;;1.10;99.90;;;;;;5005095;28;20539;-75
2024/01/07 05:10:43;;;;;;;4.10;3.70;;;1.10;99.90;;;;;;5004390;28;20504;-77
2024/01/07 05:13:10;;;;;;;4.60;4.17;;;1.20;99.90;;;;;;5002017;28;20472;-77
2024/01/07 05:15:37;;;;;;;6.57;4.63;;;1.20;99.90;;;;;;4989035;28;20490;-77
2024/01/07 05:18:09;;;;;;;5.47;4.07;;;1.20;99.90;;;;;;5030093;28;20470;-78
2024/01/07 05:20:36;;;;;;;5.80;5.17;;;1.20;99.90;;;;;;5016675;28;20503;-80
2024/01/07 05:23:03;;;;;;;5.13;4.73;;;1.20;99.90;;;;;;5010595;28;20459;-77
2024/01/07 05:25:29;;;;;;;4.47;3.77;;;1.20;99.90;;;;;;5006568;28;20508;-77
2024/01/07 05:27:56;;;;;;;6.70;5.27;;;1.30;99.90;;;;;;5006596;28;20462;-77
2024/01/07 05:30:23;;;;;;;4.90;4.50;;;1.20;99.90;;;;;;5005775;28;20450;-80
2024/01/07 05:32:50;;;;;;;4.73;4.30;;;1.20;99.90;;;;;;5011521;28;20462;-82
2024/01/07 05:35:19;;;;;;;6.03;4.90;;;1.10;99.90;;;;;;5013382;28;21103;-79
2024/01/07 05:37:46;;;;;;;5.13;4.63;;;1.10;99.90;;;;;;5010711;28;20463;-79
2024/01/07 05:40:13;;;;;;;5.10;4.60;;;1.10;99.90;;;;;;5011381;28;20503;-78
2024/01/07 05:42:40;;;;;;;4.50;4.10;;;1.10;99.90;;;;;;5053480;28;20454;-80
2024/01/07 05:45:08;;;;;;;5.53;5.03;;;1.00;99.90;;;;;;5009936;28;20450;-78
2024/01/07 05:47:35;;;;;;;4.93;4.43;;;1.00;99.90;;;;;;5017138;28;20850;-80
2024/01/07 05:50:02;;;;;;;5.90;4.77;;;1.00;99.90;;;;;;5005148;28;20458;-77
2024/01/07 05:52:30;;;;;;;5.33;4.83;;;1.00;99.90;;;;;;5007472;28;20464;-75
2024/01/07 05:54:57;;;;;;;7.13;5.73;;;1.10;99.90;;;;;;5012522;28;20477;-81
2024/01/07 05:57:24;;;;;;;6.50;5.40;;;1.10;99.90;;;;;;5010412;28;21036;-76
2024/01/07 05:59:51;;;;;;;5.50;4.97;;;1.00;99.90;;;;;;5004612;28;20875;-76
2024/01/07 06:02:18;;;;;;;5.37;4.83;;;1.00;99.90;;;;;;5017687;28;20442;-76
2024/01/07 06:04:46;;;;;;;7.20;5.27;;;1.00;99.90;;;;;;5033538;28;20466;-76
2024/01/07 06:07:13;;;;;;;5.63;5.13;;;1.00;99.90;;;;;;5007522;28;20532;-77
2024/01/07 06:09:41;;;;;;;4.03;3.63;;;1.00;99.90;;;;;;5014307;28;20467;-79
2024/01/07 06:12:08;;;;;;;9.73;5.53;;;1.00;99.90;;;;;;5011735;28;20443;-76
2024/01/07 06:14:36;;;;;;;9.17;7.03;;;1.00;99.90;;;;;;5009192;28;20455;-76
2024/01/07 06:17:03;;;;;;;6.73;5.30;;;1.00;99.90;;;;;;5032080;28;20529;-76
2024/01/07 06:19:34;;;;;;;7.17;5.17;;;1.10;99.90;;;;;;5011992;28;21015;-76
2024/01/07 06:22:01;;;;;;;6.27;4.20;;;1.00;99.90;;;;;;5007551;28;20482;-76
2024/01/07 06:24:28;;;;;;;6.87;5.37;;;0.90;99.90;;;;;;5010341;28;20561;-79
2024/01/07 06:26:56;;;;;;;5.67;4.80;;;0.90;99.90;;;;;;5009432;28;20451;-76
2024/01/07 06:29:23;;;;;;;5.73;4.80;;;0.90;99.90;;;;;;5002079;28;20829;-76
2024/01/07 06:31:50;;;;;;;5.80;4.53;;;0.90;99.90;;;;;;5006861;28;20571;-76
2024/01/07 06:34:17;;;;;;;8.47;6.00;;;0.90;99.90;;;;;;5006125;28;20463;-78
2024/01/07 06:36:45;;;;;;;4.53;3.63;;;0.90;99.90;;;;;;5017784;28;20874;-78
2024/01/07 06:39:12;;;;;;;4.27;3.87;;;0.90;99.90;;;;;;5004722;28;20926;-76
2024/01/07 06:41:39;;;;;;;6.83;5.40;;;0.90;99.90;;;;;;5027581;28;20478;-75
2024/01/07 06:44:08;;;;;;;6.17;4.60;;;0.90;99.90;;;;;;5046202;28;20454;-78
2024/01/07 06:46:35;;;;;;;7.10;5.63;;;0.90;99.90;;;;;;5038292;28;20442;-81
2024/01/07 06:49:02;;;;;;;6.93;5.60;;;0.90;99.90;;;;;;5028880;28;21001;-76
2024/01/07 06:51:29;;;;;;;8.20;6.23;;;0.90;99.90;;;;;;5013566;28;20869;-83
2024/01/07 06:53:56;;;;;;;7.20;5.87;;;1.00;99.90;;;;;;5004289;28;20950;-76
2024/01/07 06:56:24;;;;;;;6.40;5.23;;;0.90;99.90;;;;;;5004888;28;20610;-78
2024/01/07 06:58:51;;;;;;;8.27;5.60;;;0.90;99.90;;;;;;5008695;28;21010;-76
2024/01/07 07:01:24;;;;;;;6.73;5.40;;;0.90;99.90;;;;;;5015409;28;20537;-78
2024/01/07 07:03:51;;;;;;;6.63;5.47;;;0.90;99.90;;;;;;5007580;28;20505;-79
2024/01/07 07:06:18;;;;;;;5.53;4.70;;;0.90;99.90;;;;;;5007984;28;21284;-78
2024/01/07 07:08:46;;;;;;;5.97;5.27;;;0.80;99.90;;;;;;5007773;28;20446;-75
2024/01/07 07:11:13;;;;;;;7.40;5.33;;;0.80;99.90;;;;;;5010538;28;20961;-79
2024/01/07 07:13:40;;;;;;;5.00;4.30;;;0.80;99.90;;;;;;5012625;28;20974;-75
2024/01/07 07:16:08;;;;;;;4.80;3.63;;;0.80;99.90;;;;;;5012491;28;20524;-76
2024/01/07 07:18:36;;;;;;;3.07;2.83;;;0.80;99.90;;;;;;5040235;28;21538;-77
2024/01/07 07:21:03;;;;;;;5.57;3.20;;;0.80;99.90;;;;;;5017079;28;20503;-76
2024/01/07 07:23:31;;;;;;;4.97;3.70;;;0.80;99.90;;;;;;5022955;28;20474;-76
2024/01/07 07:25:58;;;;;;;5.23;4.30;;;0.80;99.90;;;;;;5004683;28;21051;-76
2024/01/07 07:28:25;;;;;;;4.90;2.70;;;0.80;99.90;;;;;;5018320;28;20455;-78
2024/01/07 07:30:53;;;;;;;4.00;3.70;;;0.80;99.90;;;;;;5080267;28;20515;-76
2024/01/07 07:33:20;;;;;;;5.07;4.67;;;0.80;99.90;;;;;;5027115;28;20559;-76
2024/01/07 07:35:49;;;;;;;4.37;3.97;;;0.80;99.90;;;;;;5045581;28;20490;-75
2024/01/07 07:38:16;;;;;;;3.63;2.77;;;0.80;99.90;;;;;;5059580;28;20474;-76
2024/01/07 07:40:44;;;;;;;5.50;3.90;;;0.80;99.90;;;;;;5046383;28;20526;-77
2024/01/07 07:43:12;;;;;;;6.73;3.50;;;0.70;99.90;;;;;;5038029;28;20458;-79
2024/01/07 07:45:39;;;;;;;6.20;4.57;;;0.70;99.90;;;;;;5020309;28;20480;-76
2024/01/07 07:48:07;;;;;;;4.43;4.10;;;0.70;99.90;;;;;;5047060;28;20490;-77
2024/01/07 07:50:34;;;;;;;6.00;4.10;;;0.70;99.90;;;;;;5012253;28;20450;-75
2024/01/07 07:53:05;;;;;;;4.07;3.67;;;0.70;99.90;;;;;;5045706;28;20491;-77
2024/01/07 07:55:31;;;;;;;4.03;3.43;;;0.70;99.90;;;;;;5054567;28;20528;-77
2024/01/07 07:57:58;;;;;;;4.07;3.40;;;0.80;99.90;;;;;;5030699;28;20471;-78
2024/01/07 08:00:25;;;;;;;4.47;4.03;;;0.80;99.90;;;;;;5005962;28;20526;-76
2024/01/07 08:02:52;;;;;;;4.90;3.70;;;0.70;99.90;;;;;;5004368;28;20471;-74
2024/01/07 08:05:19;;;;;;;5.07;3.40;;;0.70;99.90;;;;;;5005511;28;20947;-76
2024/01/07 08:07:46;;;;;;;4.73;4.20;;;0.70;99.90;;;;;;5023685;28;20460;-78
2024/01/07 08:10:15;;;;;;;4.20;3.80;;;0.70;99.90;;;;;;5017531;28;20443;-75
2024/01/07 08:12:43;;;;;;;4.40;3.73;;;0.70;99.90;;;;;;5015042;28;20463;-80
2024/01/07 08:15:11;;;;;;;5.70;5.00;;;0.70;99.90;;;;;;5024087;28;20475;-75
2024/01/07 08:17:38;;;;;;;3.20;2.90;;;0.60;99.90;;;;;;5029763;28;20506;-75
2024/01/07 08:20:06;;;;;;;6.77;4.00;;;0.70;99.90;;;;;;5022174;28;20450;-77
2024/01/07 08:22:33;;;;;;;5.07;3.67;;;0.70;99.90;;;;;;5003114;28;20459;-76
2024/01/07 08:25:00;;;;;;;3.90;3.53;;;0.60;99.90;;;;;;5026276;28;20454;-75
2024/01/07 08:27:29;;;;;;;7.07;4.30;;;0.60;99.90;;;;;;5002189;28;20890;-76
2024/01/07 08:29:56;;;;;;;4.53;3.60;;;0.60;99.90;;;;;;5006415;28;20543;-76
2024/01/07 08:32:23;;;;;;;4.03;3.50;;;0.50;99.90;;;;;;5007141;28;20516;-75
2024/01/07 08:34:51;;;;;;;6.83;3.17;;;0.50;99.90;;;;;;5008149;28;20815;-77
2024/01/07 08:37:17;;;;;;;4.33;3.73;;;0.40;99.90;;;;;;5003073;28;20490;-77
2024/01/07 08:39:44;;;;;;;4.93;4.43;;;0.40;99.90;;;;;;5006434;28;20473;-75
2024/01/07 08:42:11;;;;;;;6.67;3.60;;;0.40;99.90;;;;;;5047207;28;20276;-75
2024/01/07 08:44:40;;;;;;;2.97;2.70;;;0.40;99.90;;;;;;4998439;28;21025;-75
2024/01/07 08:47:07;;;;;;;3.30;2.97;;;0.30;99.90;;;;;;5005934;28;21065;-75
2024/01/07 08:49:34;;;;;;;3.90;2.50;;;0.30;99.90;;;;;;5016419;28;20482;-80
2024/01/07 08:52:01;;;;;;;4.23;3.63;;;0.30;99.90;;;;;;5003216;28;20528;-75
2024/01/07 08:54:28;;;;;;;3.53;3.13;;;0.30;99.90;;;;;;5022125;28;20962;-74
2024/01/07 08:56:55;;;;;;;6.10;4.38;;;0.30;99.90;;;;;;5019430;28;20526;-76
2024/01/07 08:59:22;;;;;;;3.45;2.58;;;0.30;99.90;;;;;;5039799;28;20224;-74
2024/01/07 09:01:50;;;;;;;3.63;2.67;;;0.30;99.90;;;;;;5016755;28;20303;-75
2024/01/07 09:04:17;;;;;;;3.15;2.60;;;0.30;99.90;;;;;;5003889;28;20552;-74
2024/01/07 09:06:44;;;;;;;5.37;3.73;;;0.20;99.90;;;;;;5018900;28;20215;-77
2024/01/07 09:09:11;;;;;;;4.30;3.90;;;0.30;99.90;;;;;;5035710;28;20519;-74
2024/01/07 09:11:38;;;;;;;3.47;2.93;;;0.20;99.90;;;;;;5053138;28;20982;-76
2024/01/07 09:14:05;;;;;;;3.40;2.53;;;0.20;99.90;;;;;;5021643;28;20486;-76
2024/01/07 09:16:32;;;;;;;3.53;3.20;;;0.30;99.90;;;;;;5034114;28;20247;-75
2024/01/07 09:19:01;;;;;;;3.90;3.07;;;0.30;99.90;;;;;;4997901;28;20467;-75
2024/01/07 09:21:28;;;;;;;4.33;2.40;;;0.30;99.90;;;;;;5006395;28;20475;-75
2024/01/07 09:23:55;;;;;;;4.97;2.65;;;0.30;99.90;;;;;;4999394;28;21222;-78
2024/01/07 09:26:22;;;;;;;3.83;3.20;;;0.40;99.90;;;;;;5029552;28;20247;-75
2024/01/07 09:28:49;;;;;;;3.03;2.72;;;0.50;99.90;;;;;;5041256;28;20658;-75
2024/01/07 09:31:16;;;;;;;3.23;2.83;;;0.40;99.90;;;;;;5033294;28;20211;-74
2024/01/07 09:33:43;;;;;;;5.37;3.43;;;0.40;99.90;;;;;;5016891;28;20490;-75
2024/01/07 09:36:11;;;;;;;3.93;2.90;;;0.40;99.90;;;;;;5008970;28;21017;-72
2024/01/07 09:38:38;;;;;;;3.90;3.03;;;0.40;99.90;;;;;;5017780;28;21039;-74
2024/01/07 09:41:06;;;;;;;5.00;2.67;;;0.40;99.90;;;;;;5001306;28;20512;-74
2024/01/07 09:43:33;;;;;;;2.57;2.37;;;0.50;99.90;;;;;;5007038;28;20492;-78
2024/01/07 09:46:01;;;;;;;4.87;2.60;;;0.50;99.90;;;;;;5005675;28;20474;-76
2024/01/07 09:48:28;;;;;;;4.00;3.53;;;0.50;99.90;;;;;;5005845;28;20847;-77
2024/01/07 09:50:55;;;;;;;3.03;2.40;;;0.60;99.90;;;;;;5002566;28;20463;-75
2024/01/07 09:53:31;;;;;;;2.63;2.40;;;0.60;99.90;;;;;;5013457;28;20538;-76
2024/01/07 09:56:05;;;;;;;2.50;2.30;;;0.50;99.90;;;;;;5032757;28;21025;-76
2024/01/07 09:58:32;;;;;;;3.08;2.33;;;0.60;99.90;;;;;;5006470;28;20505;-74
2024/01/07 10:01:00;;;;;;;2.90;1.98;;;0.70;99.90;;;;;;5020160;28;20715;-75
2024/01/07 10:03:27;;;;;;;4.80;2.83;;;0.70;99.90;;;;;;5051001;28;20587;-75
2024/01/07 10:05:54;;;;;;;3.77;2.90;;;0.60;99.90;;;;;;5033776;28;21386;-77
2024/01/07 10:08:21;;;;;;;2.63;2.03;;;0.70;99.90;;;;;;5027484;28;20533;-79
2024/01/07 10:10:51;;;;;;;2.17;1.97;;;0.70;99.90;;;;;;5020616;28;20535;-77
2024/01/07 10:13:18;;;;;;;1.87;1.77;;;0.70;99.90;;;;;;5011780;28;20493;-74
2024/01/07 10:15:45;;;;;;;2.57;1.60;;;0.70;99.90;;;;;;5010393;28;20504;-76
2024/01/07 10:18:12;;;;;;;4.47;2.20;;;0.70;99.90;;;;;;5004790;28;20510;-76
2024/01/07 10:20:39;;;;;;;3.47;2.40;;;0.80;99.90;;;;;;5021300;28;20231;-74
2024/01/07 10:23:07;;;;;;;3.23;2.83;;;0.80;99.90;;;;;;5005842;28;20199;-74
2024/01/07 10:25:35;;;;;;;2.78;2.53;;;0.80;99.90;;;;;;5018006;28;20507;-74
2024/01/07 10:28:04;;;;;;;4.10;1.90;;;0.70;99.90;;;;;;5018866;28;20251;-76
2024/01/07 10:30:31;;;;;;;3.00;2.07;;;0.70;99.90;;;;;;5068440;28;20199;-79
2024/01/07 10:32:59;;;;;;;2.00;1.55;;;0.70;99.90;;;;;;5027202;28;20473;-74
2024/01/07 10:35:30;;;;;;;2.67;1.70;;;0.70;99.90;;;;;;5029585;28;20214;-75
2024/01/07 10:37:57;;;;;;;5.20;1.67;;;0.70;99.90;;;;;;5030174;28;20859;-75
2024/01/07 10:40:26;;;;;;;4.50;2.93;;;0.60;99.90;;;;;;5091943;28;20531;-74
2024/01/07 10:42:54;;;;;;;2.13;1.93;;;0.70;99.90;;;;;;5022883;28;20463;-77
2024/01/07 10:45:23;;;;;;;3.00;2.17;;;0.70;99.90;;;;;;5026975;28;20482;-78
2024/01/07 10:47:51;;;;;;;1.90;1.73;;;0.70;99.90;;;;;;5026939;28;20454;-75
2024/01/07 10:50:19;;;;;;;2.30;2.10;;;0.60;99.90;;;;;;5030832;28;20536;-79
2024/01/07 10:52:51;;;;;;;2.27;1.80;;;0.60;99.90;;;;;;5009573;28;20503;-74
2024/01/07 10:55:20;;;;;;;2.03;1.93;;;0.50;99.90;;;;;;5035910;28;20453;-75
2024/01/07 10:57:49;;;;;;;2.73;2.00;;;0.60;99.90;;;;;;5003516;28;20493;-75
2024/01/07 11:00:19;;;;;;;1.93;1.83;;;0.60;99.90;;;;;;5000989;28;20474;-75
2024/01/07 11:03:03;;;;;;;2.73;2.00;;;0.70;99.90;;;;;;5004023;28;20974;-79
2024/01/07 11:05:38;;;;;;;2.13;2.00;;;0.70;99.90;;;;;;5006489;28;20460;-77
2024/01/07 11:08:12;;;;;;;2.38;2.22;;;0.70;99.90;;;;;;5004084;28;20465;-80
2024/01/07 11:10:46;;;;;;;4.97;2.28;;;0.70;99.90;;;;;;5017055;28;20260;-77
2024/01/07 11:13:33;;;;;;;2.28;1.80;;;0.80;99.90;;;;;;5000922;28;20639;-75
2024/01/07 11:16:00;;;;;;;2.20;1.90;;;0.80;99.90;;;;;;5003762;28;20246;-79
2024/01/07 11:18:35;;;;;;;2.30;1.43;;;0.70;99.90;;;;;;5028720;28;21100;-75
2024/01/07 11:21:06;;;;;;;2.40;2.20;;;0.70;99.90;;;;;;5033433;28;20910;-77
2024/01/07 11:23:36;;;;;;;3.13;2.83;;;0.70;99.90;;;;;;5004931;28;20849;-79
2024/01/07 11:26:06;;;;;;;1.77;1.60;;;0.60;99.90;;;;;;5002153;28;20480;-77
2024/01/07 11:28:54;;;;;;;2.38;2.05;;;0.60;99.90;;;;;;5001720;28;20501;-78
2024/01/07 11:31:23;;;;;;;3.20;2.05;;;0.50;99.90;;;;;;5022048;28;20211;-79
2024/01/07 11:33:55;;;;;;;3.77;3.47;;;0.60;99.90;;;;;;4997082;28;20566;-79
2024/01/07 11:36:23;;;;;;;3.07;1.90;;;0.70;99.90;;;;;;5006345;28;20450;-76
2024/01/07 11:38:51;;;;;;;2.13;1.93;;;0.60;99.90;;;;;;5008650;28;21056;-74
2024/01/07 11:41:26;;;;;;;3.17;2.73;;;0.50;99.90;;;;;;5008033;28;20620;-76
2024/01/07 11:43:58;;;;;;;3.85;2.42;;;0.50;99.90;;;;;;5013948;28;20465;-78
2024/01/07 11:46:30;;;;;;;3.08;1.95;;;0.50;99.90;;;;;;5020362;28;20709;-79
2024/01/07 11:49:11;;;;;;;2.93;1.87;;;0.40;99.90;;;;;;5039858;28;20238;-78
2024/01/07 11:51:39;;;;;;;4.97;2.77;;;0.40;99.90;;;;;;5055451;28;20798;-79
2024/01/07 11:54:06;;;;;;;2.03;1.70;;;0.40;99.90;;;;;;5080037;28;20934;-76
2024/01/07 11:56:34;;;;;;;2.90;2.13;;;0.40;99.90;;;;;;5019500;28;21337;-74
2024/01/07 11:59:01;;;;;;;3.88;2.47;;;0.40;99.90;;;;;;5041192;28;20923;-76
2024/01/07 12:01:28;;;;;;;3.10;2.80;;;0.30;99.90;;;;;;5055458;28;20203;-75
2024/01/07 12:03:55;;;;;;;2.65;2.20;;;0.30;99.90;;;;;;5026720;28;20260;-76
2024/01/07 12:06:24;;;;;;;5.20;2.95;;;0.20;99.90;;;;;;5012997;28;20885;-75
2024/01/07 12:08:52;;;;;;;3.30;2.67;;;0.20;99.90;;;;;;5031499;28;20203;-75
2024/01/07 12:11:20;;;;;;;3.22;2.22;;;0.30;99.90;;;;;;5050958;28;20204;-73
2024/01/07 12:13:49;;;;;;;2.97;2.40;;;0.30;99.90;;;;;;5069279;28;20293;-76
2024/01/07 12:16:16;;;;;;;3.50;2.47;;;0.30;99.90;;;;;;5074911;28;20698;-75
2024/01/07 12:18:43;;;;;;;2.67;1.97;;;0.20;99.90;;;;;;5005943;28;20306;-76
2024/01/07 12:21:10;;;;;;;3.20;2.90;;;0.20;99.90;;;;;;5018132;28;20533;-76
2024/01/07 12:23:38;;;;;;;3.00;2.17;;;0.20;99.90;;;;;;5036085;28;20543;-74
2024/01/07 12:26:10;;;;;;;2.40;2.20;;;0.20;99.90;;;;;;5034735;28;20475;-77
2024/01/07 12:28:37;;;;;;;2.90;2.70;;;0.20;99.90;;;;;;5029098;28;21026;-75
2024/01/07 12:31:05;;;;;;;6.13;3.20;;;0.20;99.90;;;;;;5026294;28;20486;-75
2024/01/07 12:33:33;;;;;;;4.90;3.30;;;0.30;99.90;;;;;;5044335;28;20530;-78
2024/01/07 12:36:01;;;;;;;2.53;2.33;;;0.30;99.90;;;;;;5000310;28;20462;-76
2024/01/07 12:38:28;;;;;;;3.03;2.17;;;0.20;99.90;;;;;;5000176;28;20487;-76
2024/01/07 12:40:57;;;;;;;3.90;3.43;;;0.30;99.90;;;;;;5061174;28;21827;-75
2024/01/07 12:43:24;;;;;;;4.77;2.43;;;0.20;99.90;;;;;;5022666;28;20466;-76
2024/01/07 12:45:51;;;;;;;2.63;2.43;;;0.20;99.90;;;;;;4999086;28;20501;-75
2024/01/07 12:48:18;;;;;;;3.03;2.50;;;0.20;99.90;;;;;;5016138;28;21005;-77
2024/01/07 12:50:45;;;;;;;3.10;2.00;;;0.10;99.90;;;;;;5032434;28;20216;-75
2024/01/07 12:53:12;;;;;;;4.38;3.58;;;0.10;99.90;;;;;;5004788;28;21211;-74
2024/01/07 12:55:39;;;;;;;5.38;2.70;;;0.00;99.90;;;;;;5005464;28;20206;-74
2024/01/07 12:58:08;;;;;;;3.40;2.22;;;0.00;99.90;;;;;;5003204;28;20318;-76
2024/01/07 13:00:35;;;;;;;3.30;2.38;;;-0.10;99.90;;;;;;5020720;28;20807;-75